sensor_id;sensor_type;location;lat;lon;timestamp;P1;durP1;ratioP1;P2;durP2;ratioP2
18738;SDS011;9498;51.862;19.460;2022-08-20T00:01:58;27.70;;;12.03;;
18738;SDS011;9498;51.862;19.460;2022-08-20T00:04:25;29.57;;;13.20;;
18738;SDS011;9498;51.862;19.460;2022-08-20T00:06:52;25.37;;;11.93;;
18738;SDS011;9498;51.862;19.460;2022-08-20T00:09:21;29.50;;;12.97;;
18738;SDS011;9498;51.862;19.460;2022-08-20T00:11:48;35.20;;;13.03;;
18738;SDS011;9498;51.862;19.460;2022-08-20T00:14:15;33.23;;;14.50;;
18738;SDS011;9498;51.862;19.460;2022-08-20T00:16:43;32.93;;;13.80;;
18738;SDS011;9498;51.862;19.460;2022-08-20T00:19:10;26.60;;;14.27;;
18738;SDS011;9498;51.862;19.460;2022-08-20T00:21:37;29.40;;;14.73;;
18738;SDS011;9498;51.862;19.460;2022-08-20T00:24:05;33.37;;;13.37;;
18738;SDS011;9498;51.862;19.460;2022-08-20T00:26:34;34.97;;;13.97;;
18738;SDS011;9498;51.862;19.460;2022-08-20T00:29:02;26.83;;;14.20;;
18738;SDS011;9498;51.862;19.460;2022-08-20T00:31:30;30.53;;;14.03;;
18738;SDS011;9498;51.862;19.460;2022-08-20T00:33:57;32.10;;;14.50;;
18738;SDS011;9498;51.862;19.460;2022-08-20T00:36:24;33.10;;;15.13;;
18738;SDS011;9498;51.862;19.460;2022-08-20T00:38:52;33.97;;;15.43;;
18738;SDS011;9498;51.862;19.460;2022-08-20T00:41:21;27.27;;;15.57;;
18738;SDS011;9498;51.862;19.460;2022-08-20T00:43:51;28.80;;;14.73;;
18738;SDS011;9498;51.862;19.460;2022-08-20T00:46:19;33.40;;;14.67;;
18738;SDS011;9498;51.862;19.460;2022-08-20T00:48:48;27.37;;;14.90;;
18738;SDS011;9498;51.862;19.460;2022-08-20T00:51:17;31.57;;;15.47;;
18738;SDS011;9498;51.862;19.460;2022-08-20T00:53:47;33.10;;;16.97;;
18738;SDS011;9498;51.862;19.460;2022-08-20T00:56:14;32.00;;;16.83;;
18738;SDS011;9498;51.862;19.460;2022-08-20T00:58:42;39.00;;;17.90;;
18738;SDS011;9498;51.862;19.460;2022-08-20T01:01:11;38.37;;;17.23;;
18738;SDS011;9498;51.862;19.460;2022-08-20T01:03:39;30.53;;;15.57;;
18738;SDS011;9498;51.862;19.460;2022-08-20T01:06:07;33.83;;;16.20;;
18738;SDS011;9498;51.862;19.460;2022-08-20T01:08:36;26.87;;;15.80;;
18738;SDS011;9498;51.862;19.460;2022-08-20T01:11:04;34.53;;;16.87;;
18738;SDS011;9498;51.862;19.460;2022-08-20T01:13:37;29.57;;;14.90;;
18738;SDS011;9498;51.862;19.460;2022-08-20T01:16:07;27.90;;;15.67;;
18738;SDS011;9498;51.862;19.460;2022-08-20T01:18:37;31.13;;;15.87;;
18738;SDS011;9498;51.862;19.460;2022-08-20T01:21:05;31.77;;;15.43;;
18738;SDS011;9498;51.862;19.460;2022-08-20T01:23:34;33.77;;;16.27;;
18738;SDS011;9498;51.862;19.460;2022-08-20T01:26:05;33.13;;;16.43;;
18738;SDS011;9498;51.862;19.460;2022-08-20T01:28:37;33.47;;;14.70;;
18738;SDS011;9498;51.862;19.460;2022-08-20T01:31:05;28.03;;;17.30;;
18738;SDS011;9498;51.862;19.460;2022-08-20T01:33:33;34.73;;;17.53;;
18738;SDS011;9498;51.862;19.460;2022-08-20T01:36:01;31.87;;;16.57;;
18738;SDS011;9498;51.862;19.460;2022-08-20T01:38:28;33.47;;;17.17;;
18738;SDS011;9498;51.862;19.460;2022-08-20T01:41:12;30.23;;;16.27;;
18738;SDS011;9498;51.862;19.460;2022-08-20T01:43:41;35.13;;;16.10;;
18738;SDS011;9498;51.862;19.460;2022-08-20T01:46:11;38.83;;;18.57;;
18738;SDS011;9498;51.862;19.460;2022-08-20T01:48:39;38.47;;;18.47;;
18738;SDS011;9498;51.862;19.460;2022-08-20T01:51:09;38.20;;;19.80;;
18738;SDS011;9498;51.862;19.460;2022-08-20T01:53:38;36.30;;;18.70;;
18738;SDS011;9498;51.862;19.460;2022-08-20T01:56:06;32.80;;;17.43;;
18738;SDS011;9498;51.862;19.460;2022-08-20T01:58:37;36.37;;;17.33;;
18738;SDS011;9498;51.862;19.460;2022-08-20T02:01:05;30.10;;;16.93;;
18738;SDS011;9498;51.862;19.460;2022-08-20T02:03:32;32.60;;;17.53;;
18738;SDS011;9498;51.862;19.460;2022-08-20T02:06:00;35.27;;;18.63;;
18738;SDS011;9498;51.862;19.460;2022-08-20T02:08:27;28.77;;;17.20;;
18738;SDS011;9498;51.862;19.460;2022-08-20T02:10:57;33.60;;;18.30;;
18738;SDS011;9498;51.862;19.460;2022-08-20T02:13:24;37.23;;;19.13;;
18738;SDS011;9498;51.862;19.460;2022-08-20T02:15:53;40.60;;;19.97;;
18738;SDS011;9498;51.862;19.460;2022-08-20T02:18:20;37.03;;;19.50;;
18738;SDS011;9498;51.862;19.460;2022-08-20T02:20:48;38.63;;;20.00;;
18738;SDS011;9498;51.862;19.460;2022-08-20T02:23:16;34.10;;;17.93;;
18738;SDS011;9498;51.862;19.460;2022-08-20T02:25:44;33.60;;;19.43;;
18738;SDS011;9498;51.862;19.460;2022-08-20T02:28:13;38.93;;;19.63;;
18738;SDS011;9498;51.862;19.460;2022-08-20T02:30:42;35.00;;;18.83;;
18738;SDS011;9498;51.862;19.460;2022-08-20T02:33:12;35.07;;;19.03;;
18738;SDS011;9498;51.862;19.460;2022-08-20T02:35:40;35.77;;;18.40;;
18738;SDS011;9498;51.862;19.460;2022-08-20T02:38:08;31.40;;;17.33;;
18738;SDS011;9498;51.862;19.460;2022-08-20T02:40:35;36.33;;;17.40;;
18738;SDS011;9498;51.862;19.460;2022-08-20T02:43:03;36.83;;;18.20;;
18738;SDS011;9498;51.862;19.460;2022-08-20T02:45:31;36.00;;;18.23;;
18738;SDS011;9498;51.862;19.460;2022-08-20T02:48:07;31.37;;;16.70;;
18738;SDS011;9498;51.862;19.460;2022-08-20T02:50:37;33.93;;;17.50;;
18738;SDS011;9498;51.862;19.460;2022-08-20T02:53:08;28.20;;;16.93;;
18738;SDS011;9498;51.862;19.460;2022-08-20T02:55:35;33.67;;;16.70;;
18738;SDS011;9498;51.862;19.460;2022-08-20T02:58:03;31.83;;;16.37;;
18738;SDS011;9498;51.862;19.460;2022-08-20T03:00:30;31.53;;;17.60;;
18738;SDS011;9498;51.862;19.460;2022-08-20T03:02:58;30.43;;;16.93;;
18738;SDS011;9498;51.862;19.460;2022-08-20T03:05:25;32.50;;;16.80;;
18738;SDS011;9498;51.862;19.460;2022-08-20T03:07:54;31.37;;;16.67;;
18738;SDS011;9498;51.862;19.460;2022-08-20T03:10:22;29.13;;;15.67;;
18738;SDS011;9498;51.862;19.460;2022-08-20T03:12:50;29.97;;;16.10;;
18738;SDS011;9498;51.862;19.460;2022-08-20T03:15:18;27.60;;;16.20;;
18738;SDS011;9498;51.862;19.460;2022-08-20T03:17:46;27.70;;;14.27;;
18738;SDS011;9498;51.862;19.460;2022-08-20T03:20:13;31.47;;;15.63;;
18738;SDS011;9498;51.862;19.460;2022-08-20T03:22:41;23.87;;;14.03;;
18738;SDS011;9498;51.862;19.460;2022-08-20T03:25:10;29.93;;;14.37;;
18738;SDS011;9498;51.862;19.460;2022-08-20T03:27:37;26.50;;;14.97;;
18738;SDS011;9498;51.862;19.460;2022-08-20T03:30:06;25.93;;;14.10;;
18738;SDS011;9498;51.862;19.460;2022-08-20T03:32:34;23.50;;;13.03;;
18738;SDS011;9498;51.862;19.460;2022-08-20T03:35:01;30.00;;;14.73;;
18738;SDS011;9498;51.862;19.460;2022-08-20T03:37:29;28.67;;;14.70;;
18738;SDS011;9498;51.862;19.460;2022-08-20T03:39:57;32.63;;;16.17;;
18738;SDS011;9498;51.862;19.460;2022-08-20T03:42:25;25.70;;;16.70;;
18738;SDS011;9498;51.862;19.460;2022-08-20T03:44:53;33.27;;;16.63;;
18738;SDS011;9498;51.862;19.460;2022-08-20T03:47:20;29.10;;;14.97;;
18738;SDS011;9498;51.862;19.460;2022-08-20T03:49:48;26.27;;;15.23;;
18738;SDS011;9498;51.862;19.460;2022-08-20T03:52:15;30.20;;;16.90;;
18738;SDS011;9498;51.862;19.460;2022-08-20T03:54:42;28.47;;;15.20;;
18738;SDS011;9498;51.862;19.460;2022-08-20T03:57:11;26.23;;;14.70;;
18738;SDS011;9498;51.862;19.460;2022-08-20T03:59:40;26.93;;;14.50;;
18738;SDS011;9498;51.862;19.460;2022-08-20T04:02:09;25.97;;;15.37;;
18738;SDS011;9498;51.862;19.460;2022-08-20T04:04:36;27.27;;;14.50;;
18738;SDS011;9498;51.862;19.460;2022-08-20T04:07:07;25.90;;;13.63;;
18738;SDS011;9498;51.862;19.460;2022-08-20T04:09:35;22.47;;;13.47;;
18738;SDS011;9498;51.862;19.460;2022-08-20T04:12:04;24.73;;;14.77;;
18738;SDS011;9498;51.862;19.460;2022-08-20T04:14:31;22.77;;;13.23;;
18738;SDS011;9498;51.862;19.460;2022-08-20T04:17:04;23.63;;;14.10;;
18738;SDS011;9498;51.862;19.460;2022-08-20T04:19:31;23.10;;;13.17;;
18738;SDS011;9498;51.862;19.460;2022-08-20T04:21:59;31.30;;;16.57;;
18738;SDS011;9498;51.862;19.460;2022-08-20T04:24:26;24.37;;;14.10;;
18738;SDS011;9498;51.862;19.460;2022-08-20T04:26:54;23.10;;;14.30;;
18738;SDS011;9498;51.862;19.460;2022-08-20T04:29:23;26.03;;;13.83;;
18738;SDS011;9498;51.862;19.460;2022-08-20T04:31:51;23.07;;;13.33;;
18738;SDS011;9498;51.862;19.460;2022-08-20T04:34:21;26.13;;;14.57;;
18738;SDS011;9498;51.862;19.460;2022-08-20T04:36:49;22.77;;;14.27;;
18738;SDS011;9498;51.862;19.460;2022-08-20T04:39:16;23.93;;;14.37;;
18738;SDS011;9498;51.862;19.460;2022-08-20T04:41:43;23.33;;;13.77;;
18738;SDS011;9498;51.862;19.460;2022-08-20T04:44:10;28.10;;;15.83;;
18738;SDS011;9498;51.862;19.460;2022-08-20T04:46:37;24.27;;;14.60;;
18738;SDS011;9498;51.862;19.460;2022-08-20T04:49:05;26.60;;;15.10;;
18738;SDS011;9498;51.862;19.460;2022-08-20T04:51:34;24.50;;;14.37;;
18738;SDS011;9498;51.862;19.460;2022-08-20T04:54:01;28.30;;;14.03;;
18738;SDS011;9498;51.862;19.460;2022-08-20T04:56:29;29.37;;;15.87;;
18738;SDS011;9498;51.862;19.460;2022-08-20T04:58:59;37.27;;;17.13;;
18738;SDS011;9498;51.862;19.460;2022-08-20T05:01:27;42.57;;;18.50;;
18738;SDS011;9498;51.862;19.460;2022-08-20T05:03:55;30.93;;;18.53;;
18738;SDS011;9498;51.862;19.460;2022-08-20T05:06:23;36.07;;;19.90;;
18738;SDS011;9498;51.862;19.460;2022-08-20T05:08:54;29.67;;;17.23;;
18738;SDS011;9498;51.862;19.460;2022-08-20T05:11:22;27.87;;;16.30;;
18738;SDS011;9498;51.862;19.460;2022-08-20T05:13:49;28.13;;;15.87;;
18738;SDS011;9498;51.862;19.460;2022-08-20T05:16:17;28.57;;;17.33;;
18738;SDS011;9498;51.862;19.460;2022-08-20T05:18:45;30.40;;;17.07;;
18738;SDS011;9498;51.862;19.460;2022-08-20T05:21:12;32.97;;;16.67;;
18738;SDS011;9498;51.862;19.460;2022-08-20T05:23:40;32.37;;;16.10;;
18738;SDS011;9498;51.862;19.460;2022-08-20T05:26:09;26.63;;;15.73;;
18738;SDS011;9498;51.862;19.460;2022-08-20T05:28:37;27.30;;;15.47;;
18738;SDS011;9498;51.862;19.460;2022-08-20T05:31:05;26.53;;;16.23;;
18738;SDS011;9498;51.862;19.460;2022-08-20T05:33:34;25.43;;;15.47;;
18738;SDS011;9498;51.862;19.460;2022-08-20T05:36:01;32.40;;;17.17;;
18738;SDS011;9498;51.862;19.460;2022-08-20T05:38:30;29.97;;;16.50;;
18738;SDS011;9498;51.862;19.460;2022-08-20T05:40:59;30.23;;;17.73;;
18738;SDS011;9498;51.862;19.460;2022-08-20T05:43:28;32.57;;;17.10;;
18738;SDS011;9498;51.862;19.460;2022-08-20T05:45:57;28.37;;;16.27;;
18738;SDS011;9498;51.862;19.460;2022-08-20T05:48:25;35.30;;;18.97;;
18738;SDS011;9498;51.862;19.460;2022-08-20T05:50:52;30.13;;;18.33;;
18738;SDS011;9498;51.862;19.460;2022-08-20T05:53:21;30.33;;;19.23;;
18738;SDS011;9498;51.862;19.460;2022-08-20T05:55:48;34.27;;;19.43;;
18738;SDS011;9498;51.862;19.460;2022-08-20T05:58:17;27.97;;;18.03;;
18738;SDS011;9498;51.862;19.460;2022-08-20T06:00:46;33.23;;;18.37;;
18738;SDS011;9498;51.862;19.460;2022-08-20T06:03:14;30.83;;;18.90;;
18738;SDS011;9498;51.862;19.460;2022-08-20T06:05:59;32.57;;;17.93;;
18738;SDS011;9498;51.862;19.460;2022-08-20T06:08:28;32.40;;;18.63;;
18738;SDS011;9498;51.862;19.460;2022-08-20T06:10:56;32.53;;;18.03;;
18738;SDS011;9498;51.862;19.460;2022-08-20T06:13:23;33.53;;;18.67;;
18738;SDS011;9498;51.862;19.460;2022-08-20T06:15:53;27.90;;;17.93;;
18738;SDS011;9498;51.862;19.460;2022-08-20T06:18:20;31.03;;;17.30;;
18738;SDS011;9498;51.862;19.460;2022-08-20T06:20:48;29.57;;;18.47;;
18738;SDS011;9498;51.862;19.460;2022-08-20T06:23:15;27.50;;;17.20;;
18738;SDS011;9498;51.862;19.460;2022-08-20T06:25:42;29.47;;;17.40;;
18738;SDS011;9498;51.862;19.460;2022-08-20T06:28:12;35.40;;;18.43;;
18738;SDS011;9498;51.862;19.460;2022-08-20T06:30:39;32.47;;;18.07;;
18738;SDS011;9498;51.862;19.460;2022-08-20T06:33:08;29.60;;;17.27;;
18738;SDS011;9498;51.862;19.460;2022-08-20T06:35:36;32.10;;;17.93;;
18738;SDS011;9498;51.862;19.460;2022-08-20T06:38:03;29.67;;;17.40;;
18738;SDS011;9498;51.862;19.460;2022-08-20T06:40:31;25.70;;;16.40;;
18738;SDS011;9498;51.862;19.460;2022-08-20T06:42:59;24.87;;;16.17;;
18738;SDS011;9498;51.862;19.460;2022-08-20T06:45:27;30.37;;;16.83;;
18738;SDS011;9498;51.862;19.460;2022-08-20T06:47:56;26.07;;;14.37;;
18738;SDS011;9498;51.862;19.460;2022-08-20T06:50:26;23.93;;;15.27;;
18738;SDS011;9498;51.862;19.460;2022-08-20T06:52:53;33.13;;;16.17;;
18738;SDS011;9498;51.862;19.460;2022-08-20T06:55:21;28.80;;;15.77;;
18738;SDS011;9498;51.862;19.460;2022-08-20T06:57:54;28.87;;;16.13;;
18738;SDS011;9498;51.862;19.460;2022-08-20T07:00:22;27.07;;;16.77;;
18738;SDS011;9498;51.862;19.460;2022-08-20T07:02:49;26.97;;;16.10;;
18738;SDS011;9498;51.862;19.460;2022-08-20T07:05:16;30.75;;;17.60;;
18738;SDS011;9498;51.862;19.460;2022-08-20T07:07:45;24.90;;;15.53;;
18738;SDS011;9498;51.862;19.460;2022-08-20T07:10:13;26.60;;;15.83;;
18738;SDS011;9498;51.862;19.460;2022-08-20T07:12:41;25.00;;;14.97;;
18738;SDS011;9498;51.862;19.460;2022-08-20T07:15:10;29.40;;;15.47;;
18738;SDS011;9498;51.862;19.460;2022-08-20T07:17:38;25.90;;;13.57;;
18738;SDS011;9498;51.862;19.460;2022-08-20T07:20:06;23.40;;;13.80;;
18738;SDS011;9498;51.862;19.460;2022-08-20T07:22:34;26.00;;;14.30;;
18738;SDS011;9498;51.862;19.460;2022-08-20T07:25:03;28.98;;;14.73;;
18738;SDS011;9498;51.862;19.460;2022-08-20T07:27:30;21.50;;;12.63;;
18738;SDS011;9498;51.862;19.460;2022-08-20T07:29:57;21.57;;;13.03;;
18738;SDS011;9498;51.862;19.460;2022-08-20T07:32:51;25.48;;;13.65;;
18738;SDS011;9498;51.862;19.460;2022-08-20T07:35:20;19.73;;;13.23;;
18738;SDS011;9498;51.862;19.460;2022-08-20T07:37:48;21.90;;;13.97;;
18738;SDS011;9498;51.862;19.460;2022-08-20T07:40:19;22.17;;;13.50;;
18738;SDS011;9498;51.862;19.460;2022-08-20T07:42:46;25.80;;;13.70;;
18738;SDS011;9498;51.862;19.460;2022-08-20T07:45:14;28.80;;;12.97;;
18738;SDS011;9498;51.862;19.460;2022-08-20T07:47:43;21.23;;;13.03;;
18738;SDS011;9498;51.862;19.460;2022-08-20T07:50:11;25.33;;;13.07;;
18738;SDS011;9498;51.862;19.460;2022-08-20T07:52:39;22.17;;;12.87;;
18738;SDS011;9498;51.862;19.460;2022-08-20T07:55:07;21.20;;;13.10;;
18738;SDS011;9498;51.862;19.460;2022-08-20T07:57:36;21.03;;;12.13;;
18738;SDS011;9498;51.862;19.460;2022-08-20T08:00:04;18.37;;;11.63;;
18738;SDS011;9498;51.862;19.460;2022-08-20T08:02:33;21.23;;;11.73;;
18738;SDS011;9498;51.862;19.460;2022-08-20T08:05:00;19.60;;;11.37;;
18738;SDS011;9498;51.862;19.460;2022-08-20T08:07:28;21.07;;;11.60;;
18738;SDS011;9498;51.862;19.460;2022-08-20T08:09:56;19.27;;;11.10;;
18738;SDS011;9498;51.862;19.460;2022-08-20T08:12:24;18.60;;;10.33;;
18738;SDS011;9498;51.862;19.460;2022-08-20T08:14:55;19.17;;;10.33;;
18738;SDS011;9498;51.862;19.460;2022-08-20T08:17:23;20.60;;;11.02;;
18738;SDS011;9498;51.862;19.460;2022-08-20T08:19:51;16.77;;;10.23;;
18738;SDS011;9498;51.862;19.460;2022-08-20T08:22:18;17.43;;;9.37;;
18738;SDS011;9498;51.862;19.460;2022-08-20T08:24:45;20.65;;;10.68;;
18738;SDS011;9498;51.862;19.460;2022-08-20T08:27:13;24.83;;;10.73;;
18738;SDS011;9498;51.862;19.460;2022-08-20T08:29:42;18.87;;;10.53;;
18738;SDS011;9498;51.862;19.460;2022-08-20T08:32:11;18.23;;;10.50;;
18738;SDS011;9498;51.862;19.460;2022-08-20T08:34:38;20.00;;;10.67;;
18738;SDS011;9498;51.862;19.460;2022-08-20T08:37:05;18.23;;;9.83;;
18738;SDS011;9498;51.862;19.460;2022-08-20T08:39:32;18.33;;;10.65;;
18738;SDS011;9498;51.862;19.460;2022-08-20T08:42:00;18.23;;;9.70;;
18738;SDS011;9498;51.862;19.460;2022-08-20T08:44:29;19.93;;;10.23;;
18738;SDS011;9498;51.862;19.460;2022-08-20T08:46:59;21.50;;;10.60;;
18738;SDS011;9498;51.862;19.460;2022-08-20T08:49:30;17.37;;;9.80;;
18738;SDS011;9498;51.862;19.460;2022-08-20T08:52:00;19.17;;;9.40;;
18738;SDS011;9498;51.862;19.460;2022-08-20T08:54:31;21.10;;;10.70;;
18738;SDS011;9498;51.862;19.460;2022-08-20T08:57:00;20.17;;;10.27;;
18738;SDS011;9498;51.862;19.460;2022-08-20T08:59:28;21.60;;;10.07;;
18738;SDS011;9498;51.862;19.460;2022-08-20T09:01:57;17.30;;;10.40;;
18738;SDS011;9498;51.862;19.460;2022-08-20T09:04:27;19.23;;;10.13;;
18738;SDS011;9498;51.862;19.460;2022-08-20T09:06:57;15.23;;;9.83;;
18738;SDS011;9498;51.862;19.460;2022-08-20T09:09:25;20.10;;;10.35;;
18738;SDS011;9498;51.862;19.460;2022-08-20T09:11:54;15.43;;;10.00;;
18738;SDS011;9498;51.862;19.460;2022-08-20T09:14:22;17.70;;;10.00;;
18738;SDS011;9498;51.862;19.460;2022-08-20T09:16:50;19.50;;;11.35;;
18738;SDS011;9498;51.862;19.460;2022-08-20T09:19:17;19.80;;;10.10;;
18738;SDS011;9498;51.862;19.460;2022-08-20T09:21:44;21.13;;;11.10;;
18738;SDS011;9498;51.862;19.460;2022-08-20T09:24:13;19.15;;;10.73;;
18738;SDS011;9498;51.862;19.460;2022-08-20T09:26:40;17.00;;;9.90;;
18738;SDS011;9498;51.862;19.460;2022-08-20T09:29:07;14.27;;;9.43;;
18738;SDS011;9498;51.862;19.460;2022-08-20T09:31:35;16.70;;;10.45;;
18738;SDS011;9498;51.862;19.460;2022-08-20T09:34:02;19.53;;;10.67;;
18738;SDS011;9498;51.862;19.460;2022-08-20T09:36:29;17.73;;;10.77;;
18738;SDS011;9498;51.862;19.460;2022-08-20T09:38:57;22.20;;;11.60;;
18738;SDS011;9498;51.862;19.460;2022-08-20T09:41:25;26.07;;;11.23;;
18738;SDS011;9498;51.862;19.460;2022-08-20T09:43:53;20.47;;;10.67;;
18738;SDS011;9498;51.862;19.460;2022-08-20T09:46:20;18.73;;;11.32;;
18738;SDS011;9498;51.862;19.460;2022-08-20T09:48:47;21.23;;;10.87;;
18738;SDS011;9498;51.862;19.460;2022-08-20T09:51:15;24.10;;;12.17;;
18738;SDS011;9498;51.862;19.460;2022-08-20T09:53:42;21.00;;;11.27;;
18738;SDS011;9498;51.862;19.460;2022-08-20T09:56:10;24.27;;;12.50;;
18738;SDS011;9498;51.862;19.460;2022-08-20T09:58:40;23.13;;;13.23;;
18738;SDS011;9498;51.862;19.460;2022-08-20T10:01:13;19.23;;;12.03;;
18738;SDS011;9498;51.862;19.460;2022-08-20T10:03:41;23.35;;;12.98;;
18738;SDS011;9498;51.862;19.460;2022-08-20T10:06:08;19.67;;;11.50;;
18738;SDS011;9498;51.862;19.460;2022-08-20T10:08:38;18.93;;;10.50;;
18738;SDS011;9498;51.862;19.460;2022-08-20T10:11:05;18.77;;;10.45;;
18738;SDS011;9498;51.862;19.460;2022-08-20T10:13:33;21.27;;;9.50;;
18738;SDS011;9498;51.862;19.460;2022-08-20T10:16:02;19.43;;;9.10;;
18738;SDS011;9498;51.862;19.460;2022-08-20T10:18:29;19.33;;;10.40;;
18738;SDS011;9498;51.862;19.460;2022-08-20T10:20:56;19.47;;;9.83;;
18738;SDS011;9498;51.862;19.460;2022-08-20T10:23:24;19.03;;;9.80;;
18738;SDS011;9498;51.862;19.460;2022-08-20T10:25:51;23.60;;;11.23;;
18738;SDS011;9498;51.862;19.460;2022-08-20T10:28:18;24.57;;;12.07;;
18738;SDS011;9498;51.862;19.460;2022-08-20T10:30:46;19.17;;;11.17;;
18738;SDS011;9498;51.862;19.460;2022-08-20T10:33:14;25.20;;;12.20;;
18738;SDS011;9498;51.862;19.460;2022-08-20T10:35:42;23.13;;;12.23;;
18738;SDS011;9498;51.862;19.460;2022-08-20T10:38:09;27.03;;;11.97;;
18738;SDS011;9498;51.862;19.460;2022-08-20T10:40:36;23.63;;;13.10;;
18738;SDS011;9498;51.862;19.460;2022-08-20T10:43:03;24.73;;;12.87;;
18738;SDS011;9498;51.862;19.460;2022-08-20T10:45:31;21.23;;;12.43;;
18738;SDS011;9498;51.862;19.460;2022-08-20T10:47:58;23.33;;;13.03;;
18738;SDS011;9498;51.862;19.460;2022-08-20T10:50:27;27.27;;;13.20;;
18738;SDS011;9498;51.862;19.460;2022-08-20T10:52:54;22.37;;;13.97;;
18738;SDS011;9498;51.862;19.460;2022-08-20T10:55:21;22.80;;;15.03;;
18738;SDS011;9498;51.862;19.460;2022-08-20T10:57:49;27.23;;;14.37;;
18738;SDS011;9498;51.862;19.460;2022-08-20T11:00:17;28.03;;;16.23;;
18738;SDS011;9498;51.862;19.460;2022-08-20T11:02:44;26.87;;;15.70;;
18738;SDS011;9498;51.862;19.460;2022-08-20T11:05:12;22.40;;;14.90;;
18738;SDS011;9498;51.862;19.460;2022-08-20T11:07:41;24.80;;;15.17;;
18738;SDS011;9498;51.862;19.460;2022-08-20T11:10:09;25.17;;;13.97;;
18738;SDS011;9498;51.862;19.460;2022-08-20T11:12:36;24.27;;;14.40;;
18738;SDS011;9498;51.862;19.460;2022-08-20T11:15:04;25.00;;;14.77;;
18738;SDS011;9498;51.862;19.460;2022-08-20T11:17:33;26.53;;;15.23;;
18738;SDS011;9498;51.862;19.460;2022-08-20T11:20:00;27.43;;;15.30;;
18738;SDS011;9498;51.862;19.460;2022-08-20T11:22:28;27.50;;;15.93;;
18738;SDS011;9498;51.862;19.460;2022-08-20T11:24:57;26.30;;;14.73;;
18738;SDS011;9498;51.862;19.460;2022-08-20T11:27:26;21.10;;;12.90;;
18738;SDS011;9498;51.862;19.460;2022-08-20T11:29:54;27.87;;;13.97;;
18738;SDS011;9498;51.862;19.460;2022-08-20T11:32:21;26.40;;;11.97;;
18738;SDS011;9498;51.862;19.460;2022-08-20T11:34:48;21.00;;;11.03;;
18738;SDS011;9498;51.862;19.460;2022-08-20T11:37:16;24.60;;;11.27;;
18738;SDS011;9498;51.862;19.460;2022-08-20T11:39:44;17.80;;;10.47;;
18738;SDS011;9498;51.862;19.460;2022-08-20T11:42:13;22.27;;;10.57;;
18738;SDS011;9498;51.862;19.460;2022-08-20T11:44:40;23.30;;;10.67;;
18738;SDS011;9498;51.862;19.460;2022-08-20T11:47:08;23.53;;;10.20;;
18738;SDS011;9498;51.862;19.460;2022-08-20T11:49:36;23.07;;;9.97;;
18738;SDS011;9498;51.862;19.460;2022-08-20T11:52:05;25.93;;;9.10;;
18738;SDS011;9498;51.862;19.460;2022-08-20T11:54:32;22.27;;;8.20;;
18738;SDS011;9498;51.862;19.460;2022-08-20T11:57:00;19.60;;;7.37;;
18738;SDS011;9498;51.862;19.460;2022-08-20T11:59:29;20.80;;;7.53;;
18738;SDS011;9498;51.862;19.460;2022-08-20T12:01:56;17.20;;;7.30;;
18738;SDS011;9498;51.862;19.460;2022-08-20T12:04:25;15.23;;;7.30;;
18738;SDS011;9498;51.862;19.460;2022-08-20T12:06:52;19.33;;;7.10;;
18738;SDS011;9498;51.862;19.460;2022-08-20T12:09:19;16.53;;;7.33;;
18738;SDS011;9498;51.862;19.460;2022-08-20T12:11:46;16.40;;;7.43;;
18738;SDS011;9498;51.862;19.460;2022-08-20T12:14:14;18.57;;;7.07;;
18738;SDS011;9498;51.862;19.460;2022-08-20T12:16:42;17.50;;;7.73;;
18738;SDS011;9498;51.862;19.460;2022-08-20T12:19:10;17.17;;;6.70;;
18738;SDS011;9498;51.862;19.460;2022-08-20T12:21:37;17.33;;;7.30;;
18738;SDS011;9498;51.862;19.460;2022-08-20T12:24:05;12.47;;;6.10;;
18738;SDS011;9498;51.862;19.460;2022-08-20T12:26:32;16.50;;;6.80;;
18738;SDS011;9498;51.862;19.460;2022-08-20T12:28:59;17.63;;;7.10;;
18738;SDS011;9498;51.862;19.460;2022-08-20T12:31:26;17.37;;;7.47;;
18738;SDS011;9498;51.862;19.460;2022-08-20T12:33:55;19.57;;;7.83;;
18738;SDS011;9498;51.862;19.460;2022-08-20T12:36:22;15.90;;;7.20;;
18738;SDS011;9498;51.862;19.460;2022-08-20T12:38:49;17.60;;;7.67;;
18738;SDS011;9498;51.862;19.460;2022-08-20T12:41:17;16.13;;;7.60;;
18738;SDS011;9498;51.862;19.460;2022-08-20T12:43:44;19.17;;;7.43;;
18738;SDS011;9498;51.862;19.460;2022-08-20T12:46:11;19.73;;;8.60;;
18738;SDS011;9498;51.862;19.460;2022-08-20T12:48:38;16.47;;;8.20;;
18738;SDS011;9498;51.862;19.460;2022-08-20T12:51:07;22.50;;;8.37;;
18738;SDS011;9498;51.862;19.460;2022-08-20T12:53:34;17.10;;;8.30;;
18738;SDS011;9498;51.862;19.460;2022-08-20T12:56:02;19.07;;;8.80;;
18738;SDS011;9498;51.862;19.460;2022-08-20T12:58:29;15.47;;;8.40;;
18738;SDS011;9498;51.862;19.460;2022-08-20T13:00:57;16.53;;;8.50;;
18738;SDS011;9498;51.862;19.460;2022-08-20T13:03:24;19.13;;;8.87;;
18738;SDS011;9498;51.862;19.460;2022-08-20T13:05:52;15.40;;;8.67;;
18738;SDS011;9498;51.862;19.460;2022-08-20T13:08:20;18.73;;;8.00;;
18738;SDS011;9498;51.862;19.460;2022-08-20T13:10:48;20.43;;;8.83;;
18738;SDS011;9498;51.862;19.460;2022-08-20T13:13:15;17.23;;;8.43;;
18738;SDS011;9498;51.862;19.460;2022-08-20T13:15:43;17.97;;;7.83;;
18738;SDS011;9498;51.862;19.460;2022-08-20T13:18:10;16.00;;;7.73;;
18738;SDS011;9498;51.862;19.460;2022-08-20T13:20:37;17.53;;;7.63;;
18738;SDS011;9498;51.862;19.460;2022-08-20T13:23:04;16.63;;;7.63;;
18738;SDS011;9498;51.862;19.460;2022-08-20T13:25:33;25.70;;;8.47;;
18738;SDS011;9498;51.862;19.460;2022-08-20T13:28:01;19.37;;;8.13;;
18738;SDS011;9498;51.862;19.460;2022-08-20T13:30:29;18.17;;;7.80;;
18738;SDS011;9498;51.862;19.460;2022-08-20T13:32:57;16.00;;;7.73;;
18738;SDS011;9498;51.862;19.460;2022-08-20T13:35:24;17.53;;;7.67;;
18738;SDS011;9498;51.862;19.460;2022-08-20T13:37:51;19.07;;;8.33;;
18738;SDS011;9498;51.862;19.460;2022-08-20T13:40:19;19.17;;;8.03;;
18738;SDS011;9498;51.862;19.460;2022-08-20T13:42:47;20.67;;;8.97;;
18738;SDS011;9498;51.862;19.460;2022-08-20T13:45:15;25.80;;;8.53;;
18738;SDS011;9498;51.862;19.460;2022-08-20T13:47:42;18.27;;;7.87;;
18738;SDS011;9498;51.862;19.460;2022-08-20T13:50:11;16.53;;;7.83;;
18738;SDS011;9498;51.862;19.460;2022-08-20T13:52:39;17.30;;;8.27;;
18738;SDS011;9498;51.862;19.460;2022-08-20T13:55:07;16.80;;;8.40;;
18738;SDS011;9498;51.862;19.460;2022-08-20T13:57:35;16.57;;;7.57;;
18738;SDS011;9498;51.862;19.460;2022-08-20T14:00:05;21.00;;;8.83;;
18738;SDS011;9498;51.862;19.460;2022-08-20T14:02:34;15.80;;;7.80;;
18738;SDS011;9498;51.862;19.460;2022-08-20T14:05:01;17.40;;;8.17;;
18738;SDS011;9498;51.862;19.460;2022-08-20T14:07:28;16.13;;;7.87;;
18738;SDS011;9498;51.862;19.460;2022-08-20T14:09:57;15.63;;;7.80;;
18738;SDS011;9498;51.862;19.460;2022-08-20T14:12:24;18.50;;;8.23;;
18738;SDS011;9498;51.862;19.460;2022-08-20T14:14:52;17.03;;;7.50;;
18738;SDS011;9498;51.862;19.460;2022-08-20T14:17:21;18.30;;;7.83;;
18738;SDS011;9498;51.862;19.460;2022-08-20T14:19:50;18.07;;;8.30;;
18738;SDS011;9498;51.862;19.460;2022-08-20T14:22:17;18.17;;;8.33;;
18738;SDS011;9498;51.862;19.460;2022-08-20T14:24:45;17.43;;;7.57;;
18738;SDS011;9498;51.862;19.460;2022-08-20T14:27:13;15.50;;;7.93;;
18738;SDS011;9498;51.862;19.460;2022-08-20T14:29:41;19.67;;;8.43;;